createdAt,value
2019-04-06T00:02:32.948Z,100.00
2019-04-06T00:05:01.417Z,100.00
2019-04-06T00:07:29.900Z,100.00
2019-04-06T00:09:58.394Z,100.00
2019-04-06T00:12:26.866Z,100.00
2019-04-06T00:14:55.424Z,100.00
2019-04-06T00:17:23.889Z,100.00
2019-04-06T00:19:52.359Z,100.00
2019-04-06T00:22:20.843Z,100.00
2019-04-06T00:24:49.349Z,100.00
2019-04-06T00:27:17.848Z,100.00
2019-04-06T00:29:46.322Z,100.00
2019-04-06T00:32:28.641Z,100.00
2019-04-06T00:34:57.111Z,100.00
2019-04-06T00:37:25.583Z,100.00
2019-04-06T00:39:54.109Z,100.00
2019-04-06T00:42:22.624Z,100.00
2019-04-06T00:44:51.105Z,100.00
2019-04-06T00:47:19.588Z,100.00
2019-04-06T00:49:48.096Z,100.00
2019-04-06T00:52:16.585Z,100.00
2019-04-06T00:54:45.065Z,100.00
2019-04-06T00:57:13.551Z,100.00
2019-04-06T00:59:42.039Z,100.00
2019-04-06T01:02:10.838Z,100.00
2019-04-06T01:04:39.343Z,100.00
2019-04-06T01:07:07.847Z,100.00
2019-04-06T01:09:36.390Z,100.00
2019-04-06T01:12:04.962Z,100.00
2019-04-06T01:14:33.442Z,100.00
2019-04-06T01:17:01.928Z,100.00
2019-04-06T01:19:30.483Z,100.00
2019-04-06T01:21:58.992Z,100.00
2019-04-06T01:24:27.576Z,100.00
2019-04-06T01:26:56.038Z,100.00
2019-04-06T01:29:24.555Z,100.00
2019-04-06T01:31:53.016Z,100.00
2019-04-06T01:34:21.511Z,100.00
2019-04-06T01:36:50.392Z,100.00
2019-04-06T01:39:18.880Z,100.00
2019-04-06T01:41:47.363Z,100.00
2019-04-06T01:44:15.909Z,100.00
2019-04-06T01:46:44.411Z,100.00
2019-04-06T01:49:12.908Z,100.00
2019-04-06T01:51:41.423Z,100.00
2019-04-06T01:54:09.911Z,100.00
2019-04-06T01:56:38.355Z,100.00
2019-04-06T01:59:06.919Z,100.00
2019-04-06T02:01:52.080Z,100.00
2019-04-06T02:04:20.561Z,100.00
2019-04-06T02:06:49.063Z,100.00
2019-04-06T02:09:17.559Z,100.00
2019-04-06T02:11:46.020Z,100.00
2019-04-06T02:14:14.474Z,100.00
2019-04-06T02:16:42.957Z,100.00
2019-04-06T02:19:12.252Z,100.00
2019-04-06T02:21:40.779Z,100.00
2019-04-06T02:24:09.250Z,100.00
2019-04-06T02:26:37.784Z,100.00
2019-04-06T02:29:06.287Z,100.00
2019-04-06T02:31:36.509Z,100.00
2019-04-06T02:34:24.332Z,100.00
2019-04-06T02:36:56.987Z,100.00
2019-04-06T02:39:39.089Z,100.00
2019-04-06T02:42:09.341Z,100.00
2019-04-06T02:44:37.839Z,100.00
2019-04-06T02:47:06.430Z,100.00
2019-04-06T02:49:34.919Z,100.00
2019-04-06T02:52:03.381Z,100.00
2019-04-06T02:54:31.845Z,100.00
2019-04-06T02:57:00.370Z,100.00
2019-04-06T02:59:28.954Z,100.00
2019-04-06T03:01:57.479Z,100.00
2019-04-06T03:04:25.928Z,100.00
2019-04-06T03:06:54.468Z,100.00
2019-04-06T03:09:23.579Z,100.00
2019-04-06T03:11:52.030Z,100.00
2019-04-06T03:14:20.474Z,100.00
2019-04-06T03:16:48.982Z,100.00
2019-04-06T03:19:17.657Z,100.00
2019-04-06T03:21:46.204Z,100.00
2019-04-06T03:24:14.681Z,100.00
2019-04-06T03:26:43.140Z,100.00
2019-04-06T03:29:11.626Z,100.00
2019-04-06T03:31:40.422Z,100.00
2019-04-06T03:34:09.668Z,100.00
2019-04-06T03:36:38.354Z,100.00
2019-04-06T03:39:07.297Z,100.00
2019-04-06T03:41:35.840Z,100.00
2019-04-06T03:44:04.316Z,100.00
2019-04-06T03:46:32.775Z,100.00
2019-04-06T03:49:01.346Z,100.00
2019-04-06T03:51:29.810Z,100.00
2019-04-06T03:53:58.329Z,100.00
2019-04-06T03:56:26.773Z,100.00
2019-04-06T03:58:55.405Z,100.00
2019-04-06T04:01:23.855Z,100.00
2019-04-06T04:03:52.375Z,100.00
2019-04-06T04:06:20.833Z,100.00
2019-04-06T04:08:49.303Z,100.00
2019-04-06T04:11:17.753Z,100.00
2019-04-06T04:13:46.222Z,100.00
2019-04-06T04:16:14.648Z,100.00
2019-04-06T04:18:43.061Z,100.00
2019-04-06T04:21:11.659Z,100.00
2019-04-06T04:23:40.152Z,100.00
2019-04-06T04:26:08.886Z,100.00
2019-04-06T04:28:37.697Z,100.00
2019-04-06T04:31:06.214Z,100.00
2019-04-06T04:33:34.644Z,100.00
2019-04-06T04:36:03.110Z,100.00
2019-04-06T04:38:31.791Z,100.00
2019-04-06T04:41:00.508Z,100.00
2019-04-06T04:43:28.984Z,100.00
2019-04-06T04:45:58.233Z,100.00
2019-04-06T04:48:26.720Z,100.00
2019-04-06T04:50:55.147Z,100.00
2019-04-06T04:53:23.590Z,100.00
2019-04-06T04:55:52.228Z,100.00
2019-04-06T04:58:20.663Z,100.00
2019-04-06T05:00:49.433Z,100.00
2019-04-06T05:03:17.926Z,100.00
2019-04-06T05:05:46.347Z,100.00
2019-04-06T05:08:14.802Z,100.00
2019-04-06T05:10:44.795Z,100.00
2019-04-06T05:13:13.501Z,100.00
2019-04-06T05:16:11.822Z,100.00
2019-04-06T05:18:41.974Z,100.00
2019-04-06T05:21:11.925Z,100.00
2019-04-06T05:23:40.418Z,100.00
2019-04-06T05:26:09.239Z,100.00
2019-04-06T05:28:37.718Z,100.00
2019-04-06T05:31:06.244Z,100.00
2019-04-06T05:33:34.821Z,100.00
2019-04-06T05:36:03.546Z,100.00
2019-04-06T05:38:34.418Z,100.00
2019-04-06T05:41:03.250Z,100.00
2019-04-06T05:43:31.930Z,100.00
2019-04-06T05:46:00.483Z,100.00
2019-04-06T05:48:28.949Z,100.00
2019-04-06T05:50:57.651Z,100.00
2019-04-06T05:53:26.614Z,100.00
2019-04-06T05:55:55.100Z,100.00
2019-04-06T05:58:23.544Z,100.00
2019-04-06T06:00:52.169Z,100.00
2019-04-06T06:03:20.871Z,100.00
2019-04-06T06:05:49.578Z,100.00
2019-04-06T06:08:18.095Z,100.00
2019-04-06T06:10:47.433Z,100.00
2019-04-06T06:13:16.378Z,100.00
2019-04-06T06:15:46.401Z,100.00
2019-04-06T06:18:25.423Z,100.00
2019-04-06T06:20:45.212Z,100.00
2019-04-06T06:23:15.850Z,100.00
2019-04-06T06:25:45.845Z,100.00
2019-04-06T06:28:15.556Z,100.00
2019-04-06T06:30:44.402Z,100.00
2019-04-06T06:33:12.943Z,100.00
2019-04-06T06:35:41.471Z,100.00
2019-04-06T06:38:09.933Z,100.00
2019-04-06T06:40:38.389Z,100.00
2019-04-06T06:43:06.881Z,100.00
2019-04-06T06:45:35.475Z,100.00
2019-04-06T06:48:04.133Z,100.00
2019-04-06T06:50:34.523Z,100.00
2019-04-06T06:53:02.786Z,100.00
2019-04-06T06:55:31.424Z,100.00
2019-04-06T06:57:59.872Z,100.00
2019-04-06T07:00:28.312Z,100.00
2019-04-06T07:02:56.793Z,100.00
2019-04-06T07:05:25.314Z,100.00
2019-04-06T07:07:53.752Z,100.00
2019-04-06T07:10:22.257Z,100.00
2019-04-06T07:12:50.757Z,100.00
2019-04-06T07:15:19.285Z,100.00
2019-04-06T07:17:47.706Z,100.00
2019-04-06T07:20:16.889Z,100.00
2019-04-06T07:22:45.706Z,100.00
2019-04-06T07:25:15.010Z,100.00
2019-04-06T07:27:43.445Z,100.00
2019-04-06T07:30:12.839Z,100.00
2019-04-06T07:32:41.430Z,100.00
2019-04-06T07:35:10.064Z,100.00
2019-04-06T07:37:38.679Z,100.00
2019-04-06T07:40:10.387Z,100.00
2019-04-06T07:42:38.956Z,100.00
2019-04-06T07:45:09.019Z,100.00
2019-04-06T07:47:37.547Z,100.00
2019-04-06T07:50:07.210Z,100.00
2019-04-06T07:52:36.314Z,99.59
2019-04-06T07:55:08.536Z,98.79
2019-04-06T07:57:37.015Z,97.98
2019-04-06T08:00:09.358Z,95.27
2019-04-06T08:02:37.811Z,94.31
2019-04-06T08:05:07.291Z,90.70
2019-04-06T08:07:35.846Z,90.28
2019-04-06T08:10:05.374Z,89.88
2019-04-06T08:12:33.806Z,86.04
2019-04-06T08:15:02.340Z,84.26
2019-04-06T08:17:30.823Z,83.50
2019-04-06T08:19:59.406Z,84.86
2019-04-06T08:22:27.878Z,87.95
2019-04-06T08:24:56.327Z,89.97
2019-04-06T08:27:24.770Z,91.21
2019-04-06T08:29:53.220Z,94.10
2019-04-06T08:32:21.655Z,95.75
2019-04-06T08:34:50.262Z,98.15
2019-04-06T08:37:18.861Z,96.14
2019-04-06T08:39:47.734Z,100.00
2019-04-06T08:42:16.359Z,99.22
2019-04-06T08:44:44.728Z,99.47
2019-04-06T08:47:13.176Z,100.00
2019-04-06T08:49:41.628Z,100.00
2019-04-06T08:52:11.611Z,100.00
2019-04-06T08:54:40.555Z,100.00
2019-04-06T08:57:09.410Z,100.00
2019-04-06T08:59:37.998Z,100.00
2019-04-06T09:02:06.807Z,100.00
2019-04-06T09:04:35.282Z,100.00
2019-04-06T09:07:03.731Z,100.00
2019-04-06T09:09:32.212Z,100.00
2019-04-06T09:12:00.749Z,100.00
2019-04-06T09:14:29.488Z,100.00
2019-04-06T09:16:58.167Z,100.00
2019-04-06T09:19:26.613Z,100.00
2019-04-06T09:21:55.075Z,100.00
2019-04-06T09:24:23.563Z,100.00
2019-04-06T09:26:52.026Z,100.00
2019-04-06T09:29:24.126Z,99.11
2019-04-06T09:31:50.634Z,98.99
2019-04-06T09:34:19.118Z,100.00
2019-04-06T09:36:47.567Z,100.00
2019-04-06T09:39:16.184Z,100.00
2019-04-06T09:41:44.919Z,100.00
2019-04-06T09:44:15.063Z,100.00
2019-04-06T09:47:00.406Z,99.53
2019-04-06T09:49:30.498Z,100.00
2019-04-06T09:52:16.634Z,99.21
2019-04-06T09:55:05.133Z,100.00
2019-04-06T09:57:38.153Z,97.82
2019-04-06T10:00:15.867Z,100.00
2019-04-06T10:02:45.977Z,100.00
2019-04-06T10:05:18.752Z,99.64
2019-04-06T10:07:48.913Z,100.00
2019-04-06T10:10:34.099Z,99.79
2019-04-06T10:13:06.725Z,99.25
2019-04-06T10:15:43.042Z,99.46
2019-04-06T10:18:29.511Z,100.00
2019-04-06T10:21:02.353Z,100.00
2019-04-06T10:23:38.136Z,97.86
2019-04-06T10:26:17.053Z,96.58
2019-04-06T10:28:52.918Z,94.79
2019-04-06T10:31:37.680Z,95.41
2019-04-06T10:34:13.895Z,95.79
2019-04-06T10:36:47.002Z,92.95
2019-04-06T10:39:19.642Z,92.31
2019-04-06T10:42:04.985Z,91.93
2019-04-06T10:44:50.307Z,94.98
2019-04-06T10:47:35.237Z,90.66
2019-04-06T10:50:06.213Z,90.94
2019-04-06T10:52:48.154Z,89.08
2019-04-06T10:55:29.950Z,88.59
2019-04-06T10:58:00.248Z,88.61
2019-04-06T11:00:32.893Z,89.23
2019-04-06T11:03:02.979Z,87.54
2019-04-06T11:05:36.376Z,87.29
2019-04-06T11:08:24.903Z,87.72
2019-04-06T11:11:02.468Z,87.23
2019-04-06T11:13:32.862Z,87.16
2019-04-06T11:16:19.166Z,86.80
2019-04-06T11:18:55.095Z,86.48
2019-04-06T11:21:25.429Z,87.19
2019-04-06T11:24:04.731Z,86.45
2019-04-06T11:26:38.070Z,87.41
2019-04-06T11:29:17.222Z,87.31
2019-04-06T11:31:56.571Z,86.69
2019-04-06T11:34:26.864Z,84.22
2019-04-06T11:37:15.009Z,84.71
2019-04-06T11:39:47.771Z,85.26
2019-04-06T11:42:29.564Z,83.33
2019-04-06T11:44:59.856Z,83.48
2019-04-06T11:47:29.979Z,86.15
2019-04-06T11:50:00.138Z,86.09
2019-04-06T11:52:30.240Z,85.97
2019-04-06T11:55:02.861Z,86.20
2019-04-06T11:57:49.341Z,82.99
2019-04-06T12:00:35.751Z,84.43
2019-04-06T12:03:06.207Z,84.04
2019-04-06T12:05:52.417Z,82.46
2019-04-06T12:08:22.573Z,82.13
2019-04-06T12:10:52.714Z,82.01
2019-04-06T12:13:25.789Z,82.04
2019-04-06T12:15:55.875Z,81.95
2019-04-06T12:18:25.955Z,80.90
2019-04-06T12:21:10.791Z,81.34
2019-04-06T12:23:57.040Z,79.08
2019-04-06T12:26:36.186Z,75.69
2019-04-06T12:29:21.213Z,76.29
2019-04-06T12:32:05.959Z,77.57
2019-04-06T12:34:36.055Z,74.15
2019-04-06T12:37:20.913Z,74.54
2019-04-06T12:40:03.528Z,73.64
2019-04-06T12:42:36.372Z,73.52
2019-04-06T12:45:23.723Z,74.25
2019-04-06T12:48:10.247Z,70.96
2019-04-06T12:50:42.736Z,70.38
2019-04-06T12:53:12.826Z,71.18
2019-04-06T12:55:45.709Z,70.33
2019-04-06T12:58:15.798Z,72.55
2019-04-06T13:00:52.929Z,73.26
2019-04-06T13:03:23.265Z,72.70
2019-04-06T13:06:02.262Z,71.57
2019-04-06T13:08:32.788Z,70.22
2019-04-06T13:11:19.827Z,69.83
2019-04-06T13:13:49.888Z,69.57
2019-04-06T13:16:22.758Z,68.39
2019-04-06T13:19:09.253Z,66.06
2019-04-06T13:21:55.619Z,66.37
2019-04-06T13:24:41.960Z,65.41
2019-04-06T13:27:24.223Z,65.25
2019-04-06T13:30:00.588Z,65.38
2019-04-06T13:32:42.713Z,65.97
2019-04-06T13:35:18.493Z,64.80
2019-04-06T13:38:03.805Z,64.87
2019-04-06T13:40:50.298Z,64.17
2019-04-06T13:43:20.363Z,62.40
2019-04-06T13:45:50.474Z,61.45
2019-04-06T13:48:23.337Z,61.59
2019-04-06T13:51:11.544Z,62.36
2019-04-06T13:54:00.089Z,63.29
2019-04-06T13:56:33.160Z,62.57
2019-04-06T13:59:08.688Z,60.68
2019-04-06T14:01:41.675Z,59.73
2019-04-06T14:04:14.513Z,60.50
2019-04-06T14:06:47.304Z,62.31
2019-04-06T14:09:17.647Z,61.25
2019-04-06T14:11:51.013Z,61.09
2019-04-06T14:14:21.076Z,60.23
2019-04-06T14:16:53.579Z,60.93
2019-04-06T14:19:26.640Z,59.91
2019-04-06T14:22:11.983Z,59.78
2019-04-06T14:25:00.481Z,59.36
2019-04-06T14:27:39.072Z,58.72
2019-04-06T14:30:10.496Z,60.29
2019-04-06T14:32:40.683Z,55.67
2019-04-06T14:35:21.996Z,55.44
2019-04-06T14:37:52.454Z,55.24
2019-04-06T14:40:40.317Z,54.33
2019-04-06T14:43:21.276Z,55.27
2019-04-06T14:46:04.507Z,55.27
2019-04-06T14:48:45.360Z,51.38
2019-04-06T14:51:16.392Z,51.36
2019-04-06T14:53:55.049Z,51.46
2019-04-06T14:56:25.440Z,51.46
2019-04-06T14:58:58.389Z,52.17
2019-04-06T15:01:45.270Z,52.17
2019-04-06T15:04:22.681Z,55.34
2019-04-06T15:06:53.873Z,56.45
2019-04-06T15:09:33.179Z,56.45
2019-04-06T15:12:12.173Z,56.71
2019-04-06T15:14:47.478Z,56.94
2019-04-06T15:17:20.926Z,56.78
2019-04-06T15:19:51.023Z,57.29
2019-04-06T15:22:40.082Z,57.57
2019-04-06T15:25:22.599Z,56.59
2019-04-06T15:27:58.404Z,57.32
2019-04-06T15:30:34.231Z,57.41
2019-04-06T15:33:20.949Z,57.93
2019-04-06T15:36:02.841Z,56.50
2019-04-06T15:38:40.925Z,53.53
2019-04-06T15:41:11.231Z,53.53
2019-04-06T15:43:48.962Z,50.57
2019-04-06T15:46:25.469Z,50.10
2019-04-06T15:48:55.702Z,50.17
2019-04-06T15:51:41.901Z,50.17
2019-04-06T15:54:20.390Z,50.39
2019-04-06T15:57:05.696Z,50.15
2019-04-06T15:59:37.396Z,50.05
2019-04-06T16:02:13.654Z,51.94
2019-04-06T16:04:49.800Z,51.67
2019-04-06T16:07:37.664Z,51.67
2019-04-06T16:10:21.244Z,53.11
2019-04-06T16:12:51.689Z,51.31
2019-04-06T16:15:39.817Z,51.08
2019-04-06T16:18:25.373Z,51.08
2019-04-06T16:20:59.175Z,51.79
2019-04-06T16:23:29.870Z,53.82
2019-04-06T16:26:03.311Z,55.00
2019-04-06T16:28:36.319Z,57.08
2019-04-06T16:31:12.925Z,58.48
2019-04-06T16:33:46.362Z,59.04
2019-04-06T16:36:19.840Z,57.05
2019-04-06T16:38:52.693Z,56.71
2019-04-06T16:41:41.154Z,57.36
2019-04-06T16:44:11.987Z,58.93
2019-04-06T16:46:42.553Z,60.48
2019-04-06T16:49:22.918Z,59.28
2019-04-06T16:52:10.073Z,59.28
2019-04-06T16:54:43.720Z,58.85
2019-04-06T16:57:30.885Z,58.85
2019-04-06T17:00:01.335Z,58.91
2019-04-06T17:02:50.842Z,59.15
2019-04-06T17:05:37.615Z,58.41
2019-04-06T17:08:12.075Z,57.16
2019-04-06T17:10:43.062Z,58.33
2019-04-06T17:13:22.440Z,57.15
2019-04-06T17:15:56.245Z,57.22
2019-04-06T17:18:42.400Z,57.23
2019-04-06T17:21:19.291Z,57.01
2019-04-06T17:24:05.770Z,56.96
2019-04-06T17:26:35.900Z,57.15
2019-04-06T17:29:16.004Z,56.98
2019-04-06T17:31:49.768Z,57.17
2019-04-06T17:34:36.205Z,57.54
2019-04-06T17:37:06.560Z,57.38
2019-04-06T17:39:42.766Z,57.95
2019-04-06T17:42:26.097Z,58.39
2019-04-06T17:45:10.383Z,58.86
2019-04-06T17:47:56.911Z,58.58
2019-04-06T17:50:27.193Z,58.91
2019-04-06T17:53:01.734Z,59.52
2019-04-06T17:55:49.440Z,59.45
2019-04-06T17:58:19.698Z,59.56
2019-04-06T18:00:51.550Z,59.62
2019-04-06T18:03:27.693Z,59.80
2019-04-06T18:06:14.123Z,60.03
2019-04-06T18:08:53.282Z,60.61
2019-04-06T18:11:24.194Z,60.76
2019-04-06T18:13:54.171Z,59.46
2019-04-06T18:16:24.339Z,59.74
2019-04-06T18:18:53.115Z,59.05
2019-04-06T18:21:22.257Z,59.12
2019-04-06T18:23:51.250Z,59.69
2019-04-06T18:26:20.443Z,59.93
2019-04-06T18:28:49.332Z,60.37
2019-04-06T18:31:22.648Z,60.10
2019-04-06T18:33:51.188Z,60.04
2019-04-06T18:36:21.968Z,59.70
2019-04-06T18:38:54.977Z,59.82
2019-04-06T18:41:23.950Z,59.80
2019-04-06T18:43:53.495Z,59.73
2019-04-06T18:46:22.534Z,60.09
2019-04-06T18:48:55.164Z,60.65
2019-04-06T18:51:24.645Z,60.84
2019-04-06T18:53:53.706Z,61.15
2019-04-06T18:56:25.455Z,61.08
2019-04-06T18:58:54.120Z,61.29
2019-04-06T19:01:22.956Z,61.55
2019-04-06T19:03:51.789Z,61.79
2019-04-06T19:06:20.384Z,61.74
2019-04-06T19:08:48.815Z,61.13
2019-04-06T19:11:17.506Z,61.13
2019-04-06T19:13:46.744Z,61.37
2019-04-06T19:16:17.255Z,61.04
2019-04-06T19:18:46.671Z,60.92
2019-04-06T19:21:15.528Z,60.41
2019-04-06T19:23:44.053Z,60.40
2019-04-06T19:26:12.859Z,60.53
2019-04-06T19:28:42.284Z,60.46
2019-04-06T19:31:12.563Z,60.81
2019-04-06T19:33:42.417Z,61.50
2019-04-06T19:36:11.680Z,61.59
2019-04-06T19:38:40.395Z,61.83
2019-04-06T19:41:09.271Z,62.15
2019-04-06T19:43:41.024Z,62.21
2019-04-06T19:46:09.528Z,62.49
2019-04-06T19:48:40.613Z,62.57
2019-04-06T19:51:08.955Z,62.73
2019-04-06T19:53:39.119Z,63.03
2019-04-06T19:56:07.825Z,62.99
2019-04-06T19:58:37.092Z,63.26
2019-04-06T20:01:05.811Z,63.27
2019-04-06T20:03:37.358Z,63.53
2019-04-06T20:06:04.769Z,63.52
2019-04-06T20:08:33.378Z,63.75
2019-04-06T20:11:01.988Z,63.59
2019-04-06T20:13:30.719Z,63.97
2019-04-06T20:15:59.885Z,64.20
2019-04-06T20:18:28.977Z,64.13
2019-04-06T20:20:57.798Z,64.30
2019-04-06T20:23:26.657Z,64.50
2019-04-06T20:25:56.760Z,64.42
2019-04-06T20:28:25.480Z,64.34
2019-04-06T20:30:54.477Z,64.79
2019-04-06T20:33:23.325Z,64.81
2019-04-06T20:35:52.126Z,64.89
2019-04-06T20:38:20.905Z,65.29
2019-04-06T20:40:50.864Z,65.63
2019-04-06T20:43:19.762Z,65.92
2019-04-06T20:45:48.876Z,66.43
2019-04-06T20:48:17.471Z,66.47
2019-04-06T20:50:46.120Z,66.66
2019-04-06T20:53:15.292Z,66.97
2019-04-06T20:55:43.761Z,66.83
2019-04-06T20:58:12.246Z,66.86
2019-04-06T21:00:40.670Z,66.67
2019-04-06T21:03:09.633Z,66.94
2019-04-06T21:05:38.337Z,66.75
2019-04-06T21:08:07.374Z,66.87
2019-04-06T21:10:36.259Z,66.59
2019-04-06T21:13:05.431Z,66.61
2019-04-06T21:15:34.135Z,66.58
2019-04-06T21:18:02.741Z,66.38
2019-04-06T21:20:31.471Z,66.47
2019-04-06T21:23:00.149Z,66.44
2019-04-06T21:25:28.620Z,66.44
2019-04-06T21:27:57.806Z,66.58
2019-04-06T21:30:26.645Z,66.36
2019-04-06T21:32:55.451Z,66.64
2019-04-06T21:35:23.973Z,66.69
2019-04-06T21:37:52.852Z,66.79
2019-04-06T21:40:21.564Z,66.89
2019-04-06T21:42:50.141Z,66.93
2019-04-06T21:45:19.611Z,66.88
2019-04-06T21:47:49.494Z,66.76
2019-04-06T21:50:18.149Z,66.66
2019-04-06T21:52:49.186Z,66.67
2019-04-06T21:55:16.955Z,66.61
2019-04-06T21:57:45.658Z,66.80
2019-04-06T22:00:16.661Z,66.39
2019-04-06T22:02:45.898Z,66.26
2019-04-06T22:05:17.123Z,66.49
2019-04-06T22:07:49.845Z,66.54
2019-04-06T22:10:17.256Z,66.79
2019-04-06T22:12:46.061Z,66.88
2019-04-06T22:15:16.198Z,66.91
2019-04-06T22:17:45.704Z,66.85
2019-04-06T22:20:14.962Z,66.85
2019-04-06T22:22:43.482Z,66.80
2019-04-06T22:25:12.198Z,66.91
2019-04-06T22:27:41.601Z,67.03
2019-04-06T22:30:11.270Z,67.12
2019-04-06T22:32:40.315Z,67.52
2019-04-06T22:35:09.965Z,69.15
2019-04-06T22:37:39.575Z,67.14
2019-04-06T22:40:08.609Z,66.86
2019-04-06T22:42:37.708Z,66.85
2019-04-06T22:45:13.777Z,66.94
2019-04-06T22:47:45.181Z,66.85
2019-04-06T22:50:15.186Z,66.84
2019-04-06T22:52:45.207Z,66.65
2019-04-06T22:55:13.905Z,66.73
2019-04-06T22:57:42.811Z,66.67
2019-04-06T23:00:16.742Z,66.49
2019-04-06T23:03:02.844Z,66.85
2019-04-06T23:05:36.998Z,66.93
2019-04-06T23:08:06.371Z,67.38
2019-04-06T23:10:35.074Z,68.90
2019-04-06T23:13:04.438Z,69.38
2019-04-06T23:15:32.839Z,69.55
2019-04-06T23:18:02.142Z,69.40
2019-04-06T23:20:31.179Z,69.53
2019-04-06T23:22:59.673Z,71.59
2019-04-06T23:25:28.893Z,73.81
2019-04-06T23:28:00.116Z,73.51
2019-04-06T23:30:28.532Z,71.86
2019-04-06T23:32:57.387Z,73.04
2019-04-06T23:35:27.603Z,74.13
2019-04-06T23:37:56.514Z,73.79
2019-04-06T23:40:25.170Z,73.78
2019-04-06T23:42:53.767Z,74.52
2019-04-06T23:45:25.477Z,75.62
2019-04-06T23:47:53.945Z,75.30
2019-04-06T23:50:25.878Z,75.85
2019-04-06T23:52:54.615Z,76.04
2019-04-06T23:55:23.434Z,76.66
2019-04-06T23:57:52.512Z,77.63
